createdAt,value
2022-10-12T00:04:05.823Z,6.32
2022-10-12T00:14:09.283Z,6.21
2022-10-12T00:24:12.859Z,6.19
2022-10-12T00:34:16.608Z,6.20
2022-10-12T00:44:48.112Z,6.24
2022-10-12T00:54:55.027Z,6.22
2022-10-12T01:04:59.557Z,6.19
2022-10-12T01:15:04.638Z,6.26
2022-10-12T01:25:50.664Z,6.25
2022-10-12T01:36:22.063Z,6.05
2022-10-12T01:46:25.426Z,5.78
2022-10-12T01:56:47.922Z,5.85
2022-10-12T02:07:09.185Z,5.77
2022-10-12T02:17:16.127Z,5.50
2022-10-12T02:27:22.479Z,5.40
2022-10-12T02:37:43.438Z,5.39
2022-10-12T02:47:50.429Z,5.42
2022-10-12T02:57:54.849Z,5.39
2022-10-12T03:07:58.501Z,5.46
2022-10-12T03:18:02.064Z,5.65
2022-10-12T03:28:06.465Z,5.63
2022-10-12T03:38:10.116Z,5.45
2022-10-12T03:48:13.884Z,5.27
2022-10-12T03:58:17.655Z,5.25
2022-10-12T04:08:21.420Z,5.18
2022-10-12T04:18:25.288Z,5.28
2022-10-12T04:28:28.905Z,5.34
2022-10-12T04:38:32.723Z,5.31
2022-10-12T04:48:36.276Z,5.28
2022-10-12T04:58:40.257Z,5.37
2022-10-12T05:08:44.138Z,5.20
2022-10-12T05:18:48.307Z,5.09
2022-10-12T05:28:52.428Z,5.06
2022-10-12T05:38:56.151Z,5.02
2022-10-12T05:48:59.829Z,5.12
2022-10-12T05:59:04.482Z,5.15
2022-10-12T06:09:08.679Z,5.16
2022-10-12T06:19:12.547Z,5.26
2022-10-12T06:29:16.219Z,5.31
2022-10-12T06:39:20.449Z,5.46
2022-10-12T06:49:24.049Z,5.74
2022-10-12T06:59:28.029Z,5.91
2022-10-12T07:09:32.261Z,6.16
2022-10-12T07:19:35.931Z,6.48
2022-10-12T07:29:40.448Z,6.88
2022-10-12T07:39:44.770Z,7.37
2022-10-12T07:49:48.503Z,8.03
2022-10-12T07:59:52.165Z,8.38
2022-10-12T08:09:56.342Z,8.94
2022-10-12T08:19:59.896Z,9.71
2022-10-12T08:30:07.656Z,10.49
2022-10-12T08:40:18.749Z,11.24
2022-10-12T08:50:28.682Z,11.73
2022-10-12T09:00:35.025Z,12.19
2022-10-12T09:10:46.683Z,12.58
2022-10-12T09:20:54.195Z,12.94
2022-10-12T09:31:11.605Z,13.46
2022-10-12T09:41:37.287Z,13.83
2022-10-12T09:51:41.663Z,14.03
2022-10-12T10:02:17.873Z,14.09
2022-10-12T10:12:24.344Z,14.01
2022-10-12T10:22:30.432Z,14.08
2022-10-12T10:32:34.386Z,14.15
2022-10-12T10:42:37.977Z,14.24
2022-10-12T10:52:41.827Z,14.21
2022-10-12T11:02:59.413Z,14.21
2022-10-12T11:13:12.892Z,14.39
2022-10-12T11:23:54.009Z,14.51
2022-10-12T11:34:03.677Z,14.67
2022-10-12T11:44:16.323Z,14.66
2022-10-12T11:54:33.371Z,14.60
2022-10-12T12:04:43.643Z,14.64
2022-10-12T12:14:54.110Z,14.77
2022-10-12T12:25:06.570Z,14.73
2022-10-12T12:35:27.439Z,14.62
2022-10-12T12:45:33.878Z,14.60
2022-10-12T12:55:52.056Z,14.55
2022-10-12T13:06:08.097Z,14.52
2022-10-12T13:16:57.255Z,14.53
2022-10-12T13:27:00.771Z,14.45
2022-10-12T13:37:16.348Z,14.37
2022-10-12T13:47:25.073Z,14.24
2022-10-12T13:57:43.692Z,14.18
2022-10-12T14:07:50.006Z,13.98
2022-10-12T14:17:55.641Z,13.77
2022-10-12T14:28:06.045Z,13.59
2022-10-12T14:38:40.303Z,13.33
2022-10-12T14:48:44.088Z,12.99
2022-10-12T14:58:47.935Z,12.75
2022-10-12T15:08:52.932Z,12.50
2022-10-12T15:18:56.799Z,12.16
2022-10-12T15:29:00.476Z,11.79
2022-10-12T15:39:04.750Z,11.48
2022-10-12T15:49:10.268Z,11.10
2022-10-12T15:59:14.665Z,10.58
2022-10-12T16:09:18.199Z,9.95
2022-10-12T16:19:22.371Z,9.33
2022-10-12T16:29:26.449Z,8.70
2022-10-12T16:39:30.400Z,8.22
2022-10-12T16:49:34.704Z,7.74
2022-10-12T16:59:38.371Z,7.46
2022-10-12T17:09:42.669Z,7.11
2022-10-12T17:19:46.935Z,6.75
2022-10-12T17:29:51.109Z,6.49
2022-10-12T17:39:54.969Z,6.27
2022-10-12T17:50:00.295Z,6.02
2022-10-12T18:00:05.849Z,5.76
2022-10-12T18:10:18.810Z,5.44
2022-10-12T18:20:23.771Z,5.19
2022-10-12T18:30:29.330Z,4.94
2022-10-12T18:40:39.815Z,4.69
2022-10-12T18:50:47.448Z,4.44
2022-10-12T19:00:52.297Z,4.24
2022-10-12T19:10:58.018Z,4.05
2022-10-12T19:21:07.785Z,3.98
2022-10-12T19:31:17.690Z,3.84
2022-10-12T19:41:22.570Z,3.79
2022-10-12T19:51:29.181Z,3.68
2022-10-12T20:01:37.834Z,3.51
2022-10-12T20:11:43.062Z,3.28
2022-10-12T20:21:50.407Z,3.11
2022-10-12T20:31:54.285Z,2.92
2022-10-12T20:42:01.234Z,2.83
2022-10-12T20:52:05.713Z,2.75
2022-10-12T21:02:10.309Z,2.64
2022-10-12T21:12:14.321Z,2.61
2022-10-12T21:22:18.807Z,2.54
2022-10-12T21:32:22.830Z,2.45
2022-10-12T21:42:26.797Z,2.28
2022-10-12T21:52:31.904Z,2.24
2022-10-12T22:02:35.467Z,2.12
2022-10-12T22:12:39.743Z,1.95
2022-10-12T22:22:43.629Z,1.92
2022-10-12T22:32:48.317Z,1.82
2022-10-12T22:42:52.173Z,1.72
2022-10-12T22:52:56.050Z,1.63
2022-10-12T23:02:59.738Z,1.57
2022-10-12T23:13:03.578Z,1.41
2022-10-12T23:23:08.217Z,1.27
2022-10-12T23:33:17.871Z,1.29
2022-10-12T23:43:21.639Z,1.27
2022-10-12T23:53:26.222Z,1.20
